createdAt,value
2022-08-16T00:03:07.744Z,15.90
2022-08-16T00:09:15.784Z,20.95
2022-08-16T00:15:51.432Z,14.80
2022-08-16T00:21:57.086Z,18.27
2022-08-16T00:28:04.772Z,18.63
2022-08-16T00:34:08.433Z,18.23
2022-08-16T00:40:33.684Z,19.52
2022-08-16T00:46:54.050Z,15.20
2022-08-16T00:53:08.672Z,16.05
2022-08-16T00:59:15.265Z,14.57
2022-08-16T01:05:19.129Z,19.33
2022-08-16T01:11:27.295Z,17.52
2022-08-16T01:17:36.578Z,13.75
2022-08-16T01:24:51.866Z,15.40
2022-08-16T01:30:49.955Z,14.10
2022-08-16T01:37:01.461Z,18.27
2022-08-16T01:43:05.753Z,19.83
2022-08-16T01:49:12.803Z,15.98
2022-08-16T01:55:18.474Z,13.57
2022-08-16T02:01:20.584Z,16.20
2022-08-16T02:07:23.780Z,15.55
2022-08-16T02:13:27.738Z,15.35
2022-08-16T02:19:59.454Z,15.10
2022-08-16T02:25:59.529Z,16.25
2022-08-16T02:32:03.380Z,18.55
2022-08-16T02:38:24.097Z,16.27
2022-08-16T02:44:26.964Z,16.70
2022-08-16T02:50:54.696Z,14.68
2022-08-16T02:56:52.072Z,13.85
2022-08-16T03:02:56.507Z,16.30
2022-08-16T03:08:58.556Z,16.33
2022-08-16T03:15:01.804Z,19.27
2022-08-16T03:21:03.869Z,16.33
2022-08-16T03:27:06.999Z,17.10
2022-08-16T03:33:11.640Z,12.80
2022-08-16T03:39:15.126Z,15.35
2022-08-16T03:45:27.271Z,13.65
2022-08-16T03:51:33.093Z,13.55
2022-08-16T03:57:36.359Z,16.00
2022-08-16T04:03:38.377Z,12.35
2022-08-16T04:09:40.207Z,9.57
2022-08-16T04:15:42.169Z,12.73
2022-08-16T04:21:45.952Z,12.15
2022-08-16T04:27:54.256Z,8.63
2022-08-16T04:33:59.540Z,12.20
2022-08-16T04:40:01.304Z,10.40
2022-08-16T04:46:32.015Z,18.27
2022-08-16T04:52:34.595Z,86.20
2022-08-16T04:58:44.009Z,18.40
2022-08-16T05:04:47.973Z,57.60
2022-08-16T05:10:50.060Z,56.85
2022-08-16T05:16:52.109Z,46.75
2022-08-16T05:22:54.228Z,45.92
2022-08-16T05:28:58.719Z,55.00
2022-08-16T05:35:01.164Z,37.72
2022-08-16T05:41:03.904Z,44.03
2022-08-16T05:47:05.826Z,50.00
2022-08-16T05:53:10.075Z,45.92
2022-08-16T05:59:13.396Z,33.90
2022-08-16T06:05:15.844Z,33.28
2022-08-16T06:11:17.835Z,39.67
2022-08-16T06:17:21.537Z,34.28
2022-08-16T06:23:24.398Z,32.08
2022-08-16T06:29:26.510Z,40.00
2022-08-16T06:35:40.279Z,44.03
2022-08-16T06:41:42.320Z,39.45
2022-08-16T06:47:54.110Z,40.55
2022-08-16T06:53:58.289Z,50.38
2022-08-16T07:00:00.125Z,39.28
2022-08-16T07:06:04.805Z,29.95
2022-08-16T07:12:07.223Z,40.60
2022-08-16T07:18:11.338Z,32.38
2022-08-16T07:24:30.495Z,34.40
2022-08-16T07:30:39.655Z,38.22
2022-08-16T07:36:57.880Z,36.90
2022-08-16T07:43:00.811Z,28.55
2022-08-16T07:49:04.965Z,36.25
2022-08-16T07:55:15.318Z,23.38
2022-08-16T08:01:17.431Z,18.13
2022-08-16T08:07:19.384Z,31.75
2022-08-16T08:13:41.822Z,25.00
2022-08-16T08:19:45.853Z,31.35
2022-08-16T08:25:56.022Z,37.20
2022-08-16T08:31:57.890Z,29.85
2022-08-16T08:38:00.199Z,38.78
2022-08-16T08:44:29.464Z,34.03
2022-08-16T08:50:32.249Z,26.45
2022-08-16T08:56:45.479Z,25.98
2022-08-16T09:02:52.260Z,32.50
2022-08-16T09:08:54.739Z,22.52
2022-08-16T09:15:00.573Z,26.30
2022-08-16T09:21:02.429Z,30.08
2022-08-16T09:27:05.571Z,24.70
2022-08-16T09:33:07.708Z,31.70
2022-08-16T09:39:16.341Z,11.57
2022-08-16T09:45:18.757Z,14.98
2022-08-16T09:51:34.354Z,8.23
2022-08-16T09:57:41.755Z,8.50
2022-08-16T10:04:01.924Z,10.75
2022-08-16T10:10:09.787Z,8.95
2022-08-16T10:22:17.268Z,13.43
2022-08-16T10:28:28.529Z,16.52
2022-08-16T10:34:32.763Z,19.95
2022-08-16T10:40:35.695Z,15.00
2022-08-16T10:46:41.984Z,19.08
2022-08-16T10:52:44.762Z,17.15
2022-08-16T10:58:51.765Z,24.38
2022-08-16T11:05:10.694Z,22.88
2022-08-16T11:11:19.543Z,14.43
2022-08-16T11:17:22.230Z,20.55
2022-08-16T11:23:25.789Z,17.40
2022-08-16T11:29:27.636Z,20.80
2022-08-16T11:41:54.182Z,21.33
2022-08-16T11:47:56.028Z,15.32
2022-08-16T11:53:58.439Z,10.45
2022-08-16T12:00:00.852Z,12.13
2022-08-16T12:06:25.311Z,12.30
2022-08-16T12:12:32.873Z,12.57
2022-08-16T12:18:37.791Z,10.63
2022-08-16T12:24:41.634Z,7.40
2022-08-16T12:30:46.928Z,9.13
2022-08-16T12:36:48.847Z,10.25
2022-08-16T12:42:53.552Z,13.05
2022-08-16T12:48:58.272Z,11.00
2022-08-16T12:55:01.213Z,37.05
2022-08-16T13:01:03.997Z,23.00
2022-08-16T13:07:08.566Z,26.20
2022-08-16T13:13:11.017Z,25.05
2022-08-16T13:19:13.113Z,15.57
2022-08-16T13:25:21.246Z,16.73
2022-08-16T13:31:23.982Z,12.35
2022-08-16T13:37:25.983Z,16.40
2022-08-16T13:43:29.048Z,11.32
2022-08-16T13:49:35.591Z,15.38
2022-08-16T13:55:37.525Z,17.90
2022-08-16T14:01:43.232Z,12.52
2022-08-16T14:07:52.571Z,12.70
2022-08-16T14:13:54.901Z,11.00
2022-08-16T14:19:59.973Z,16.33
2022-08-16T14:26:02.507Z,8.50
2022-08-16T14:32:07.789Z,13.32
2022-08-16T14:38:11.272Z,8.30
2022-08-16T14:44:19.897Z,13.70
2022-08-16T14:50:25.630Z,10.20
2022-08-16T14:56:38.429Z,15.95
2022-08-16T15:02:45.273Z,10.93
2022-08-16T15:08:48.017Z,12.10
2022-08-16T15:14:52.292Z,9.30
2022-08-16T15:20:54.614Z,12.02
2022-08-16T15:26:56.958Z,10.65
2022-08-16T15:33:05.492Z,9.25
2022-08-16T15:39:25.611Z,12.80
2022-08-16T15:45:48.276Z,8.88
2022-08-16T15:51:57.763Z,18.98
2022-08-16T15:58:01.128Z,17.52
2022-08-16T16:04:25.848Z,26.08
2022-08-16T16:10:29.316Z,24.33
2022-08-16T16:16:31.784Z,29.55
2022-08-16T16:22:34.257Z,35.75
2022-08-16T16:29:05.073Z,34.60
2022-08-16T16:34:59.009Z,25.38
2022-08-16T16:41:09.418Z,27.55
2022-08-16T16:47:11.680Z,21.33
2022-08-16T16:53:17.143Z,17.85
2022-08-16T16:59:20.171Z,21.23
2022-08-16T17:05:23.201Z,18.88
2022-08-16T17:11:26.032Z,21.65
2022-08-16T17:17:36.131Z,24.45
2022-08-16T17:23:58.052Z,13.85
2022-08-16T17:30:01.259Z,25.15
2022-08-16T17:36:03.581Z,17.73
2022-08-16T17:42:15.749Z,17.65
2022-08-16T17:48:19.085Z,19.65
2022-08-16T17:54:30.149Z,20.23
2022-08-16T18:00:32.863Z,12.90
2022-08-16T18:06:34.667Z,14.15
2022-08-16T18:12:44.759Z,21.02
2022-08-16T18:18:53.359Z,14.40
2022-08-16T18:24:56.319Z,31.00
2022-08-16T18:31:01.127Z,29.02
2022-08-16T18:37:05.809Z,18.83
2022-08-16T18:43:14.092Z,25.48
2022-08-16T18:49:17.849Z,20.63
2022-08-16T18:55:21.411Z,20.67
2022-08-16T19:01:24.115Z,19.67
2022-08-16T19:07:30.716Z,21.30
2022-08-16T19:13:34.570Z,23.13
2022-08-16T19:19:36.286Z,14.73
2022-08-16T19:25:47.566Z,25.00
2022-08-16T19:31:51.231Z,23.55
2022-08-16T19:37:54.013Z,18.90
2022-08-16T19:43:55.797Z,18.20
2022-08-16T19:49:58.071Z,19.42
2022-08-16T19:55:59.953Z,20.45
2022-08-16T20:02:02.408Z,19.70
2022-08-16T20:08:04.755Z,18.17
2022-08-16T20:14:06.604Z,15.93
2022-08-16T20:20:08.778Z,17.42
2022-08-16T20:26:13.811Z,18.33
2022-08-16T20:32:23.965Z,13.27
2022-08-16T20:38:27.458Z,14.70
2022-08-16T20:44:29.333Z,15.00
2022-08-16T20:50:32.010Z,17.55
2022-08-16T20:56:33.710Z,14.27
2022-08-16T21:02:35.422Z,13.82
2022-08-16T21:08:51.989Z,12.40
2022-08-16T21:14:55.563Z,17.55
2022-08-16T21:20:57.344Z,16.75
2022-08-16T21:26:59.073Z,12.95
2022-08-16T21:33:10.081Z,11.48
2022-08-16T21:39:11.851Z,9.68
2022-08-16T21:45:14.534Z,14.02
2022-08-16T21:51:16.290Z,11.52
2022-08-16T21:57:22.801Z,13.18
2022-08-16T22:03:25.370Z,9.38
2022-08-16T22:09:27.261Z,12.40
2022-08-16T22:15:28.968Z,8.43
2022-08-16T22:21:32.004Z,9.70
2022-08-16T22:27:33.765Z,10.10
2022-08-16T22:33:35.512Z,10.48
2022-08-16T22:39:37.322Z,8.95
2022-08-16T22:45:39.385Z,8.13
2022-08-16T22:51:42.362Z,10.38
2022-08-16T22:57:44.494Z,15.63
2022-08-16T23:03:46.274Z,10.88
2022-08-16T23:09:48.038Z,8.63
2022-08-16T23:15:57.087Z,10.90
2022-08-16T23:22:00.820Z,12.02
2022-08-16T23:28:03.577Z,10.48
2022-08-16T23:34:05.349Z,8.45
2022-08-16T23:40:11.737Z,10.27
2022-08-16T23:46:17.092Z,8.82
2022-08-16T23:52:19.212Z,8.10
2022-08-16T23:58:47.013Z,12.90
